createdAt,value
2022-07-29T00:01:42.335Z,13.60
2022-07-29T00:04:09.717Z,13.60
2022-07-29T00:06:37.782Z,13.50
2022-07-29T00:09:05.224Z,13.40
2022-07-29T00:11:32.652Z,13.30
2022-07-29T00:14:00.186Z,13.20
2022-07-29T00:16:27.622Z,13.20
2022-07-29T00:18:54.967Z,13.10
2022-07-29T00:21:22.287Z,13.10
2022-07-29T00:23:49.635Z,13.10
2022-07-29T00:26:17.065Z,13.00
2022-07-29T00:28:44.422Z,13.00
2022-07-29T00:31:12.241Z,13.00
2022-07-29T00:33:39.682Z,12.90
2022-07-29T00:36:07.352Z,12.90
2022-07-29T00:38:34.846Z,12.90
2022-07-29T00:41:02.530Z,12.80
2022-07-29T00:43:29.861Z,12.80
2022-07-29T00:45:57.327Z,12.80
2022-07-29T00:48:24.725Z,12.80
2022-07-29T00:50:52.269Z,12.70
2022-07-29T00:53:21.608Z,12.70
2022-07-29T00:55:49.565Z,12.70
2022-07-29T00:58:16.990Z,12.60
2022-07-29T01:00:45.556Z,12.60
2022-07-29T01:03:13.158Z,12.60
2022-07-29T01:05:51.102Z,12.70
2022-07-29T01:08:21.641Z,12.60
2022-07-29T01:10:50.560Z,12.70
2022-07-29T01:13:18.615Z,12.70
2022-07-29T01:15:50.827Z,12.80
2022-07-29T01:18:35.801Z,12.80
2022-07-29T01:21:42.495Z,12.80
2022-07-29T01:24:22.226Z,12.90
2022-07-29T01:27:30.403Z,12.90
2022-07-29T01:30:01.021Z,12.90
2022-07-29T01:32:32.854Z,12.90
2022-07-29T01:35:24.745Z,12.90
2022-07-29T01:38:20.512Z,12.80
2022-07-29T01:41:18.741Z,12.80
2022-07-29T01:44:08.306Z,12.80
2022-07-29T01:46:39.603Z,12.80
2022-07-29T01:49:19.078Z,12.70
2022-07-29T01:52:08.783Z,12.70
2022-07-29T01:54:46.811Z,12.60
2022-07-29T01:57:18.688Z,12.50
2022-07-29T01:59:48.607Z,12.50
2022-07-29T02:02:17.959Z,12.40
2022-07-29T02:04:49.786Z,12.40
2022-07-29T02:07:21.395Z,12.40
2022-07-29T02:09:51.584Z,12.50
2022-07-29T02:12:20.869Z,12.50
2022-07-29T02:14:51.810Z,12.40
2022-07-29T02:17:27.690Z,12.40
2022-07-29T02:20:00.562Z,12.40
2022-07-29T02:22:31.122Z,12.40
2022-07-29T02:25:00.827Z,12.40
2022-07-29T02:27:30.376Z,12.40
2022-07-29T02:30:00.655Z,12.50
2022-07-29T02:32:30.692Z,12.50
2022-07-29T02:35:00.072Z,12.50
2022-07-29T02:37:30.393Z,12.40
2022-07-29T02:40:00.091Z,12.40
2022-07-29T02:42:29.654Z,12.50
2022-07-29T02:44:57.770Z,12.50
2022-07-29T02:47:45.178Z,12.60
2022-07-29T02:50:41.515Z,12.60
2022-07-29T02:53:19.153Z,12.60
2022-07-29T02:55:57.638Z,12.60
2022-07-29T02:58:30.881Z,12.60
2022-07-29T03:01:21.670Z,12.70
2022-07-29T03:03:52.197Z,12.70
2022-07-29T03:06:28.830Z,12.70
2022-07-29T03:09:12.797Z,12.70
2022-07-29T03:11:49.347Z,12.70
2022-07-29T03:14:21.763Z,12.70
2022-07-29T03:16:50.666Z,12.70
2022-07-29T03:19:19.024Z,12.60
2022-07-29T03:21:46.514Z,12.60
2022-07-29T03:24:27.027Z,12.60
2022-07-29T03:26:55.727Z,12.60
2022-07-29T03:29:23.034Z,12.60
2022-07-29T03:31:52.092Z,12.60
2022-07-29T03:34:19.574Z,12.60
2022-07-29T03:36:51.155Z,12.60
2022-07-29T03:39:24.859Z,12.70
2022-07-29T03:41:56.391Z,12.80
2022-07-29T03:44:25.319Z,12.90
2022-07-29T03:46:56.104Z,13.00
2022-07-29T03:49:25.134Z,13.10
2022-07-29T03:51:52.657Z,13.10
2022-07-29T03:54:21.444Z,13.20
2022-07-29T03:56:51.543Z,13.20
2022-07-29T03:59:21.276Z,13.30
2022-07-29T04:01:50.247Z,13.30
2022-07-29T04:04:18.388Z,13.30
2022-07-29T04:06:48.337Z,13.50
2022-07-29T04:09:15.968Z,13.60
2022-07-29T04:12:03.420Z,13.70
2022-07-29T04:14:32.489Z,13.80
2022-07-29T04:17:00.768Z,13.80
2022-07-29T04:19:28.267Z,13.90
2022-07-29T04:21:55.537Z,13.90
2022-07-29T04:24:22.979Z,14.00
2022-07-29T04:26:50.415Z,14.00
2022-07-29T04:29:17.857Z,14.00
2022-07-29T04:31:45.446Z,14.00
2022-07-29T04:34:13.590Z,14.10
2022-07-29T04:36:41.378Z,14.10
2022-07-29T04:39:08.722Z,14.20
2022-07-29T04:41:36.036Z,14.20
2022-07-29T04:44:06.990Z,14.30
2022-07-29T04:46:35.470Z,14.30
2022-07-29T04:49:04.206Z,14.40
2022-07-29T04:51:31.919Z,14.50
2022-07-29T04:53:59.779Z,14.60
2022-07-29T04:56:27.387Z,14.60
2022-07-29T04:58:55.216Z,14.60
2022-07-29T05:01:22.623Z,14.70
2022-07-29T05:03:50.062Z,14.80
2022-07-29T05:06:17.419Z,14.80
2022-07-29T05:08:44.766Z,14.90
2022-07-29T05:11:13.583Z,14.90
2022-07-29T05:13:45.045Z,15.00
2022-07-29T05:16:14.362Z,15.20
2022-07-29T05:18:42.198Z,15.20
2022-07-29T05:21:09.711Z,15.30
2022-07-29T05:23:37.019Z,15.40
2022-07-29T05:26:04.356Z,15.50
2022-07-29T05:28:36.289Z,15.60
2022-07-29T05:31:03.937Z,15.60
2022-07-29T05:33:35.912Z,15.70
2022-07-29T05:36:08.483Z,15.80
2022-07-29T05:38:37.021Z,16.00
2022-07-29T05:41:05.739Z,16.00
2022-07-29T05:43:34.037Z,16.10
2022-07-29T05:46:01.718Z,16.10
2022-07-29T05:48:29.154Z,16.20
2022-07-29T05:50:56.506Z,16.20
2022-07-29T05:53:24.045Z,16.40
2022-07-29T05:55:51.605Z,16.50
2022-07-29T05:58:18.950Z,16.70
2022-07-29T06:00:46.868Z,16.90
2022-07-29T06:03:14.214Z,17.00
2022-07-29T06:05:41.628Z,16.90
2022-07-29T06:08:09.055Z,16.70
2022-07-29T06:10:36.731Z,16.70
2022-07-29T06:13:04.344Z,16.60
2022-07-29T06:15:31.720Z,16.50
2022-07-29T06:18:01.517Z,16.50
2022-07-29T06:20:31.563Z,16.40
2022-07-29T06:22:59.552Z,16.20
2022-07-29T06:25:27.690Z,16.10
2022-07-29T06:27:55.184Z,16.00
2022-07-29T06:30:22.969Z,15.90
2022-07-29T06:32:50.700Z,15.70
2022-07-29T06:35:39.652Z,15.70
2022-07-29T06:38:30.930Z,15.90
2022-07-29T06:41:02.260Z,16.20
2022-07-29T06:43:32.910Z,16.40
2022-07-29T06:46:02.547Z,16.40
2022-07-29T06:48:30.393Z,16.60
2022-07-29T06:50:57.883Z,16.80
2022-07-29T06:53:25.574Z,17.10
2022-07-29T06:55:53.087Z,17.50
2022-07-29T06:58:21.650Z,17.90
2022-07-29T07:00:49.555Z,18.10
2022-07-29T07:03:18.115Z,18.00
2022-07-29T07:05:46.557Z,18.00
2022-07-29T07:08:15.005Z,18.20
2022-07-29T07:10:42.411Z,18.50
2022-07-29T07:13:09.785Z,18.50
2022-07-29T07:15:39.164Z,18.40
2022-07-29T07:18:08.043Z,18.80
2022-07-29T07:20:36.733Z,18.90
2022-07-29T07:23:04.825Z,18.70
2022-07-29T07:25:32.168Z,18.80
2022-07-29T07:27:59.397Z,18.50
2022-07-29T07:30:26.879Z,18.10
2022-07-29T07:32:54.415Z,17.80
2022-07-29T07:35:21.773Z,18.00
2022-07-29T07:37:49.317Z,18.40
2022-07-29T07:40:18.874Z,18.60
2022-07-29T07:42:46.580Z,18.60
2022-07-29T07:45:16.354Z,18.90
2022-07-29T07:47:44.385Z,19.30
2022-07-29T07:50:18.203Z,19.20
2022-07-29T07:52:53.945Z,18.50
2022-07-29T07:55:21.522Z,18.30
2022-07-29T07:57:49.715Z,18.20
2022-07-29T08:00:18.071Z,18.50
2022-07-29T08:02:46.380Z,18.40
2022-07-29T08:05:18.063Z,18.70
2022-07-29T08:07:48.794Z,19.00
2022-07-29T08:10:37.149Z,19.60
2022-07-29T08:13:08.916Z,19.80
2022-07-29T08:15:36.560Z,19.70
2022-07-29T08:18:08.511Z,19.40
2022-07-29T08:20:37.322Z,18.90
2022-07-29T08:23:05.906Z,18.70
2022-07-29T08:25:34.660Z,18.90
2022-07-29T08:28:06.460Z,19.20
2022-07-29T08:30:33.959Z,18.70
2022-07-29T08:33:01.514Z,18.50
2022-07-29T08:35:34.803Z,18.10
2022-07-29T08:38:04.586Z,18.40
2022-07-29T08:40:32.748Z,18.80
2022-07-29T08:43:06.561Z,19.30
2022-07-29T08:45:48.004Z,19.40
2022-07-29T08:48:21.437Z,19.60
2022-07-29T08:50:51.221Z,19.40
2022-07-29T08:53:19.594Z,19.30
2022-07-29T08:55:51.640Z,19.70
2022-07-29T08:58:21.609Z,20.00
2022-07-29T09:00:57.975Z,19.70
2022-07-29T09:03:31.756Z,18.80
2022-07-29T09:05:59.772Z,18.50
2022-07-29T09:08:27.061Z,18.30
2022-07-29T09:10:54.729Z,18.60
2022-07-29T09:13:22.863Z,19.10
2022-07-29T09:15:50.129Z,19.50
2022-07-29T09:18:37.224Z,20.00
2022-07-29T09:21:24.515Z,20.20
2022-07-29T09:24:09.805Z,20.20
2022-07-29T09:26:40.184Z,20.20
2022-07-29T09:29:23.545Z,20.30
2022-07-29T09:31:53.158Z,20.10
2022-07-29T09:34:25.025Z,20.10
2022-07-29T09:36:53.708Z,20.40
2022-07-29T09:39:31.915Z,20.60
2022-07-29T09:42:01.422Z,20.80
2022-07-29T09:44:41.831Z,20.90
2022-07-29T09:47:09.635Z,21.20
2022-07-29T09:49:52.897Z,21.20
2022-07-29T09:52:20.212Z,21.20
2022-07-29T09:54:47.869Z,21.30
2022-07-29T09:57:30.544Z,20.80
2022-07-29T10:00:02.697Z,20.70
2022-07-29T10:02:34.813Z,21.00
2022-07-29T10:05:04.755Z,21.00
2022-07-29T10:07:57.637Z,20.70
2022-07-29T10:10:35.479Z,20.40
2022-07-29T10:13:11.012Z,20.50
2022-07-29T10:15:46.444Z,20.50
2022-07-29T10:18:15.796Z,20.60
2022-07-29T10:20:43.348Z,21.20
2022-07-29T10:23:10.888Z,21.60
2022-07-29T10:25:38.334Z,21.20
2022-07-29T10:28:07.754Z,21.60
2022-07-29T10:30:35.569Z,22.00
2022-07-29T10:33:35.195Z,22.60
2022-07-29T10:36:26.274Z,22.80
2022-07-29T10:39:18.214Z,23.20
2022-07-29T10:42:34.469Z,23.30
2022-07-29T10:45:04.227Z,22.00
2022-07-29T10:47:32.400Z,21.30
2022-07-29T10:50:07.435Z,22.10
2022-07-29T10:52:57.808Z,22.70
2022-07-29T10:55:44.577Z,23.60
2022-07-29T10:58:25.539Z,23.00
2022-07-29T11:00:54.926Z,23.20
2022-07-29T11:03:49.652Z,23.90
2022-07-29T11:06:26.660Z,24.50
2022-07-29T11:09:17.618Z,25.60
2022-07-29T11:11:51.363Z,25.00
2022-07-29T11:14:26.542Z,25.20
2022-07-29T11:17:06.244Z,24.10
2022-07-29T11:19:34.894Z,24.10
2022-07-29T11:22:05.606Z,24.40
2022-07-29T11:24:34.784Z,25.20
2022-07-29T11:27:23.382Z,25.60
2022-07-29T11:30:04.883Z,26.30
2022-07-29T11:32:44.674Z,26.30
2022-07-29T11:38:24.164Z,26.00
2022-07-29T11:41:23.999Z,24.20
2022-07-29T11:43:56.543Z,24.50
2022-07-29T11:46:50.566Z,25.70
2022-07-29T11:49:32.365Z,26.00
2022-07-29T11:52:04.865Z,26.80
2022-07-29T11:54:57.525Z,26.20
2022-07-29T11:57:22.866Z,26.30
2022-07-29T12:00:09.704Z,25.80
2022-07-29T12:02:48.658Z,25.50
2022-07-29T12:05:22.268Z,24.60
2022-07-29T12:08:23.891Z,22.90
2022-07-29T12:10:52.165Z,23.70
2022-07-29T12:13:23.084Z,24.30
2022-07-29T12:16:05.587Z,25.10
2022-07-29T12:18:33.542Z,26.20
2022-07-29T12:21:05.075Z,26.40
2022-07-29T12:23:34.296Z,26.70
2022-07-29T12:26:07.316Z,25.70
2022-07-29T12:28:40.980Z,23.80
2022-07-29T12:31:42.976Z,25.10
2022-07-29T12:34:03.060Z,26.30
2022-07-29T12:36:30.514Z,26.90
2022-07-29T12:38:57.941Z,26.60
2022-07-29T12:41:25.345Z,26.60
2022-07-29T12:43:56.459Z,27.00
2022-07-29T12:46:24.069Z,27.60
2022-07-29T12:48:56.372Z,27.30
2022-07-29T12:51:50.009Z,27.80
2022-07-29T12:54:19.210Z,29.40
2022-07-29T12:56:46.875Z,29.40
2022-07-29T12:59:15.384Z,28.10
2022-07-29T13:01:43.147Z,27.60
2022-07-29T13:04:11.245Z,25.40
2022-07-29T13:06:51.050Z,25.80
2022-07-29T13:09:24.360Z,26.30
2022-07-29T13:11:54.060Z,27.30
2022-07-29T13:14:36.201Z,28.20
2022-07-29T13:17:05.965Z,28.60
2022-07-29T13:19:43.680Z,28.30
2022-07-29T13:22:16.759Z,27.90
2022-07-29T13:24:51.634Z,28.20
2022-07-29T13:27:24.339Z,28.20
2022-07-29T13:29:55.680Z,27.60
2022-07-29T13:32:27.804Z,28.40
2022-07-29T13:34:56.704Z,29.80
2022-07-29T13:37:24.382Z,29.50
2022-07-29T13:39:53.158Z,27.50
2022-07-29T13:42:21.039Z,25.90
2022-07-29T13:44:49.819Z,25.10
2022-07-29T13:47:17.372Z,26.00
2022-07-29T13:49:44.896Z,26.90
2022-07-29T13:52:12.248Z,28.20
2022-07-29T13:54:42.320Z,28.50
2022-07-29T13:57:12.236Z,28.90
2022-07-29T13:59:48.445Z,27.20
2022-07-29T14:02:19.560Z,28.40
2022-07-29T14:04:46.830Z,28.60
2022-07-29T14:07:16.271Z,28.60
2022-07-29T14:09:44.090Z,27.30
2022-07-29T14:12:11.482Z,27.40
2022-07-29T14:14:38.761Z,28.00
2022-07-29T14:17:07.927Z,29.10
2022-07-29T14:19:40.145Z,30.90
2022-07-29T14:22:09.036Z,31.10
2022-07-29T14:24:37.751Z,31.60
2022-07-29T14:27:06.875Z,30.90
2022-07-29T14:29:36.801Z,30.80
2022-07-29T14:32:10.244Z,30.30
2022-07-29T14:34:39.551Z,30.20
2022-07-29T14:37:07.726Z,30.70
2022-07-29T14:39:42.307Z,31.20
2022-07-29T14:42:11.600Z,30.80
2022-07-29T14:44:40.363Z,29.00
2022-07-29T14:47:08.297Z,29.10
2022-07-29T14:49:36.389Z,29.20
2022-07-29T14:52:04.432Z,29.80
2022-07-29T14:54:31.775Z,31.40
2022-07-29T14:56:59.358Z,30.90
2022-07-29T14:59:27.480Z,31.30
2022-07-29T15:01:55.253Z,31.50
2022-07-29T15:04:22.701Z,30.80
2022-07-29T15:06:50.249Z,31.10
2022-07-29T15:09:17.698Z,30.50
2022-07-29T15:11:45.366Z,28.50
2022-07-29T15:14:12.815Z,27.60
2022-07-29T15:16:47.031Z,27.80
2022-07-29T15:19:15.779Z,28.50
2022-07-29T15:21:48.590Z,29.90
2022-07-29T15:24:22.801Z,30.60
2022-07-29T15:26:50.201Z,31.70
2022-07-29T15:29:17.643Z,30.90
2022-07-29T15:31:45.468Z,31.10
2022-07-29T15:34:12.802Z,30.80
2022-07-29T15:36:55.535Z,29.70
2022-07-29T15:39:23.526Z,28.60
2022-07-29T15:41:51.959Z,30.40
2022-07-29T15:44:20.886Z,30.00
2022-07-29T15:47:04.397Z,31.20
2022-07-29T15:49:47.999Z,32.50
2022-07-29T15:52:25.198Z,33.30
2022-07-29T15:54:57.203Z,31.90
2022-07-29T15:57:25.262Z,31.40
2022-07-29T15:59:52.923Z,32.30
2022-07-29T16:02:20.489Z,32.40
2022-07-29T16:04:47.951Z,32.20
2022-07-29T16:07:15.735Z,31.80
2022-07-29T16:09:49.315Z,31.80
2022-07-29T16:12:18.462Z,32.00
2022-07-29T16:14:45.994Z,32.00
2022-07-29T16:17:14.585Z,32.00
2022-07-29T16:19:43.907Z,31.90
2022-07-29T16:22:12.076Z,30.60
2022-07-29T16:24:39.824Z,29.70
2022-07-29T16:27:07.216Z,28.30
2022-07-29T16:29:34.656Z,28.80
2022-07-29T16:32:02.147Z,29.50
2022-07-29T16:34:29.896Z,30.20
2022-07-29T16:36:57.238Z,30.60
2022-07-29T16:39:24.663Z,31.10
2022-07-29T16:41:52.027Z,31.60
2022-07-29T16:44:19.572Z,31.30
2022-07-29T16:46:47.022Z,31.40
2022-07-29T16:49:19.256Z,31.00
2022-07-29T16:51:48.200Z,30.40
2022-07-29T16:54:15.776Z,30.30
2022-07-29T16:56:43.300Z,30.20
2022-07-29T16:59:10.719Z,29.20
2022-07-29T17:01:38.792Z,29.10
2022-07-29T17:04:06.468Z,28.70
2022-07-29T17:06:39.181Z,27.50
2022-07-29T17:09:08.941Z,26.80
2022-07-29T17:11:53.305Z,26.10
2022-07-29T17:14:25.248Z,24.90
2022-07-29T17:17:00.248Z,23.90
2022-07-29T17:19:30.602Z,22.70
2022-07-29T17:22:05.039Z,22.30
2022-07-29T17:24:36.790Z,21.60
2022-07-29T17:27:05.759Z,21.10
2022-07-29T17:29:35.009Z,20.70
2022-07-29T17:32:02.417Z,20.50
2022-07-29T17:34:29.888Z,20.20
2022-07-29T17:36:57.825Z,20.10
2022-07-29T17:39:25.468Z,20.00
2022-07-29T17:41:52.859Z,20.00
2022-07-29T17:44:20.177Z,19.90
2022-07-29T17:46:47.811Z,19.90
2022-07-29T17:49:15.374Z,19.70
2022-07-29T17:51:42.860Z,19.70
2022-07-29T17:54:10.182Z,19.60
2022-07-29T17:56:37.624Z,19.60
2022-07-29T17:59:06.945Z,19.50
2022-07-29T18:01:34.777Z,19.40
2022-07-29T18:04:03.196Z,19.20
2022-07-29T18:06:30.601Z,19.10
2022-07-29T18:08:57.897Z,19.00
2022-07-29T18:11:25.555Z,19.00
2022-07-29T18:13:52.956Z,19.00
2022-07-29T18:16:20.524Z,18.90
2022-07-29T18:18:48.239Z,18.80
2022-07-29T18:21:15.596Z,18.70
2022-07-29T18:23:43.116Z,18.70
2022-07-29T18:26:10.500Z,18.60
2022-07-29T18:28:38.017Z,18.50
2022-07-29T18:31:07.450Z,18.40
2022-07-29T18:33:34.816Z,18.30
2022-07-29T18:36:04.188Z,18.10
2022-07-29T18:38:39.232Z,18.00
2022-07-29T18:41:06.595Z,18.00
2022-07-29T18:43:33.890Z,17.90
2022-07-29T18:46:01.271Z,17.70
2022-07-29T18:48:31.948Z,17.70
2022-07-29T18:50:59.235Z,17.60
2022-07-29T18:53:26.639Z,17.60
2022-07-29T18:55:58.563Z,17.50
2022-07-29T18:58:27.487Z,17.50
2022-07-29T19:00:54.875Z,17.40
2022-07-29T19:03:22.178Z,17.40
2022-07-29T19:05:49.776Z,17.40
2022-07-29T19:08:17.142Z,17.30
2022-07-29T19:10:45.987Z,17.20
2022-07-29T19:13:13.616Z,17.10
2022-07-29T19:15:41.114Z,17.00
2022-07-29T19:18:08.575Z,17.00
2022-07-29T19:20:36.236Z,17.00
2022-07-29T19:23:06.164Z,16.90
2022-07-29T19:25:35.616Z,16.80
2022-07-29T19:28:03.593Z,16.70
2022-07-29T19:30:31.207Z,16.70
2022-07-29T19:32:58.675Z,16.70
2022-07-29T19:35:31.288Z,16.70
2022-07-29T19:38:01.485Z,16.60
2022-07-29T19:40:29.779Z,16.40
2022-07-29T19:42:57.425Z,16.40
2022-07-29T19:45:26.331Z,16.30
2022-07-29T19:47:59.035Z,16.30
2022-07-29T19:50:28.700Z,16.20
2022-07-29T19:52:56.235Z,16.20
2022-07-29T19:55:24.201Z,16.20
2022-07-29T19:57:53.088Z,16.10
2022-07-29T20:00:21.303Z,16.10
2022-07-29T20:02:48.761Z,15.90
2022-07-29T20:05:16.186Z,15.90
2022-07-29T20:07:44.095Z,15.80
2022-07-29T20:10:11.533Z,15.70
2022-07-29T20:12:39.418Z,15.70
2022-07-29T20:15:07.496Z,15.80
2022-07-29T20:17:39.813Z,15.80
2022-07-29T20:20:08.853Z,15.80
2022-07-29T20:22:37.214Z,15.80
2022-07-29T20:25:06.801Z,15.70
2022-07-29T20:27:37.100Z,15.60
2022-07-29T20:30:05.093Z,15.40
2022-07-29T20:32:34.354Z,15.40
2022-07-29T20:35:01.737Z,15.40
2022-07-29T20:37:29.061Z,15.30
2022-07-29T20:39:56.378Z,15.30
2022-07-29T20:42:23.665Z,15.30
2022-07-29T20:44:53.776Z,15.30
2022-07-29T20:47:23.777Z,15.20
2022-07-29T20:49:51.256Z,15.20
2022-07-29T20:52:19.885Z,15.10
2022-07-29T20:54:47.600Z,15.10
2022-07-29T20:57:15.203Z,14.90
2022-07-29T20:59:45.785Z,14.90
2022-07-29T21:02:13.562Z,14.80
2022-07-29T21:04:41.856Z,14.70
2022-07-29T21:07:09.294Z,14.70
2022-07-29T21:09:36.635Z,14.70
2022-07-29T21:12:04.576Z,14.60
2022-07-29T21:14:37.837Z,14.60
2022-07-29T21:17:07.375Z,14.50
2022-07-29T21:19:35.559Z,14.40
2022-07-29T21:22:03.856Z,14.40
2022-07-29T21:24:31.301Z,14.40
2022-07-29T21:27:21.701Z,14.20
2022-07-29T21:29:49.687Z,14.10
2022-07-29T21:32:27.627Z,14.00
2022-07-29T21:34:58.392Z,14.10
2022-07-29T21:37:25.973Z,14.10
2022-07-29T21:39:53.318Z,14.00
2022-07-29T21:42:20.753Z,14.00
2022-07-29T21:44:48.177Z,14.00
2022-07-29T21:47:15.431Z,13.90
2022-07-29T21:49:42.794Z,13.90
2022-07-29T21:52:10.267Z,13.90
2022-07-29T21:54:38.856Z,13.90
2022-07-29T21:57:07.134Z,13.80
2022-07-29T21:59:34.679Z,13.70
2022-07-29T22:02:02.235Z,13.70
2022-07-29T22:04:30.639Z,13.60
2022-07-29T22:06:59.051Z,13.50
2022-07-29T22:09:26.924Z,13.40
2022-07-29T22:11:54.999Z,13.50
2022-07-29T22:14:22.459Z,13.50
2022-07-29T22:16:49.982Z,13.40
2022-07-29T22:19:17.397Z,13.40
2022-07-29T22:21:44.989Z,13.30
2022-07-29T22:24:12.389Z,13.30
2022-07-29T22:26:39.829Z,13.30
2022-07-29T22:29:07.271Z,13.30
2022-07-29T22:31:34.639Z,13.30
2022-07-29T22:34:02.086Z,13.30
2022-07-29T22:36:29.411Z,13.30
2022-07-29T22:38:56.755Z,13.30
2022-07-29T22:41:24.059Z,13.20
2022-07-29T22:43:51.395Z,13.00
2022-07-29T22:46:18.806Z,12.90
2022-07-29T22:48:46.379Z,13.00
2022-07-29T22:51:13.689Z,12.90
2022-07-29T22:53:41.159Z,12.80
2022-07-29T22:56:08.570Z,12.70
2022-07-29T22:58:35.938Z,12.70
2022-07-29T23:01:05.424Z,12.70
2022-07-29T23:03:32.915Z,12.80
2022-07-29T23:06:00.287Z,12.90
2022-07-29T23:08:27.784Z,12.90
2022-07-29T23:10:55.126Z,13.00
2022-07-29T23:13:22.415Z,13.00
2022-07-29T23:15:49.876Z,13.00
2022-07-29T23:18:17.495Z,13.00
2022-07-29T23:20:46.136Z,12.90
2022-07-29T23:23:13.457Z,12.90
2022-07-29T23:25:40.809Z,12.90
2022-07-29T23:28:11.619Z,12.80
2022-07-29T23:30:41.735Z,12.70
2022-07-29T23:33:09.318Z,12.80
2022-07-29T23:35:36.785Z,12.80
2022-07-29T23:38:04.185Z,12.60
2022-07-29T23:40:31.634Z,12.50
2022-07-29T23:42:59.027Z,12.40
2022-07-29T23:45:42.442Z,12.40
2022-07-29T23:48:10.349Z,12.30
2022-07-29T23:50:37.630Z,12.30
2022-07-29T23:53:04.899Z,12.30
2022-07-29T23:55:37.998Z,12.40
2022-07-29T23:58:06.279Z,12.40
